Impacts METAR Board INFO
IDs:

KMDW - Chicago/Midway Intl, IL, US

Updated at: 1016 UTC 23 Jan 2018
Potential Impact None Slight Moderate High
Time22/22Z 22/23Z 23/00Z 23/01Z 23/02Z 23/03Z 23/04Z 23/05Z 23/06Z 23/07Z 23/08Z 23/09Z 23/10Z
VIS10 10 10 9 10 10 10 10 10 10 10 10 2
CIG37 42 55 27 60 45 90 -- -- -- -- 22 10
CoverBKNBKNBKNOVCOVCOVCOVCSCTFEWFEWSCTOVCOVC
FltCatVFRVFRVFRMVFRVFRVFRVFRVFRVFRVFRVFRMVFRIFR
WX-------RA---RA-------------RA -SN BR
WDir200170170240260260240220230240250250250
WSpd15 9 9 25 20 12 9 9 7 4 4 9 10
WGst22 17 -- 29 27 21 -- -- -- -- -- -- --
Raw hourly METARs
KMDW 222153Z 20015G22KT 10SM FEW015 FEW021 BKN037 12/09 A2945 RMK AO2 SLP973 T01220089
KMDW 222253Z 17009G17KT 10SM FEW020 BKN042 12/08 A2945 RMK AO2 SLP976 T01170083
KMDW 222353Z 17009KT 10SM FEW038 SCT047 BKN055 11/08 A2944 RMK AO2 SLP971 60000 T01110083 10128 20111 58003
KMDW 230104Z 24025G29KT 9SM -RA SCT016 BKN027 OVC037 08/06 A2948 RMK AO2 PK WND 24029/0104 WSHFT 0048 PRESRR P0001 T00830061
KMDW 230153Z 26020G27KT 10SM FEW015 BKN060 OVC100 07/03 A2951 RMK AO2 PK WND 28030/0143 WSHFT 0048 RAE45 SLP996 P0002 T00670033
KMDW 230253Z 26012G21KT 10SM -RA FEW019 BKN045 OVC060 06/01 A2950 RMK AO2 RAB31 SLP993 P0000 60002 T00560011 50017
KMDW 230353Z 24009KT 10SM OVC090 05/01 A2950 RMK AO2 RAE01 SLP993 P0000 T00500011
KMDW 230453Z 22009KT 10SM FEW160 SCT220 04/01 A2951 RMK AO2 SLP995 T00390006
KMDW 230553Z COR 23007KT 10SM FEW040 03/00 A2951 RMK AO2 SLP996 60002 T00280000 10111 20028 401280028 50002
KMDW 230653Z 24004KT 10SM FEW040 02/M01 A2950 RMK AO2 SLP994 T00221006
KMDW 230753Z 25004KT 10SM FEW040 SCT250 02/M01 A2951 RMK AO2 SLP996 T00171011
KMDW 230853Z 25009KT 10SM BKN022 OVC026 03/00 A2953 RMK AO2 SLP003 T00280000 53007
KMDW 230953Z 25010KT 2SM -RASN BR BKN010 OVC019 02/01 A2954 RMK AO2 RAB17SNB36 SLP008 P0001 T00220006